TimeMST,TemperatureF,Dew PointF,Humidity,Sea Level PressureIn,VisibilityMPH,Wind Direction,Wind SpeedMPH,Gust SpeedMPH,PrecipitationIn,Events,Conditions,WindDirDegrees,DateUTC
12:26 AM,55.4,32.0,41,29.68,4.0,South,11.5,-,N/A,Rain,Rain,170,2012-12-14 07:26:00
12:36 AM,55.4,32.0,41,29.67,2.0,SSE,13.8,23.0,N/A,Rain,Rain,160,2012-12-14 07:36:00
12:41 AM,55.4,32.0,41,29.68,2.0,SSW,12.7,-,N/A,Rain,Rain,200,2012-12-14 07:41:00
12:51 AM,53.6,32.0,44,29.68,5.0,SSW,12.7,27.6,N/A,Rain,Rain,200,2012-12-14 07:51:00
12:58 AM,53.6,32.0,44,29.66,6.0,SSW,9.2,-,N/A,Rain,Light Rain,200,2012-12-14 07:58:00
1:18 AM,53.6,32.0,44,29.62,10.0,SSE,6.9,-,N/A,Rain,Light Rain,150,2012-12-14 08:18:00
1:23 AM,53.6,32.0,44,29.62,10.0,South,8.1,-,N/A,,Scattered Clouds,170,2012-12-14 08:23:00
1:58 AM,53.6,32.0,44,29.63,10.0,SSW,12.7,-,N/A,,Partly Cloudy,200,2012-12-14 08:58:00
2:08 AM,53.6,32.0,44,29.64,10.0,SSW,10.4,-,N/A,,Mostly Cloudy,200,2012-12-14 09:08:00
2:28 AM,55.4,32.0,41,29.64,10.0,South,9.2,-,N/A,,Overcast,180,2012-12-14 09:28:00
2:48 AM,55.4,32.0,41,29.65,10.0,SSW,13.8,-,N/A,,Overcast,200,2012-12-14 09:48:00
2:58 AM,55.4,32.0,41,29.65,10.0,SSW,15.0,-,N/A,,Overcast,210,2012-12-14 09:58:00
3:08 AM,53.6,32.0,44,29.66,10.0,SSW,16.1,-,N/A,,Overcast,200,2012-12-14 10:08:00
3:12 AM,53.6,32.0,44,29.66,9.0,SSW,16.1,-,N/A,Rain,Light Rain,200,2012-12-14 10:12:00
3:19 AM,53.6,32.0,44,29.66,9.0,SSW,16.1,-,N/A,,Overcast,200,2012-12-14 10:19:00
3:29 AM,53.6,32.0,44,29.66,10.0,SSW,13.8,-,N/A,,Overcast,210,2012-12-14 10:29:00
3:30 AM,53.6,32.0,44,29.66,10.0,SW,13.8,-,N/A,Rain,Light Rain,220,2012-12-14 10:30:00
3:39 AM,53.6,32.0,44,29.67,10.0,SW,13.8,-,N/A,,Overcast,220,2012-12-14 10:39:00
3:58 AM,53.6,32.0,44,29.66,10.0,SW,15.0,-,N/A,,Scattered Clouds,220,2012-12-14 10:58:00
4:38 AM,51.8,32.0,47,29.68,10.0,SW,16.1,-,N/A,,Mostly Cloudy,220,2012-12-14 11:38:00
4:58 AM,52.3,49.8,91,29.69,10.0,SW,20.7,-,N/A,,Overcast,230,2012-12-14 11:58:00
5:08 AM,51.8,50.0,94,29.70,10.0,SW,16.1,-,N/A,,Mostly Cloudy,220,2012-12-14 12:08:00
5:58 AM,50.0,50.0,100,29.72,10.0,SSW,16.1,-,N/A,,Partly Cloudy,210,2012-12-14 12:58:00
6:58 AM,48.2,32.0,54,29.78,10.0,WSW,4.6,-,N/A,,Clear,240,2012-12-14 13:58:00
7:58 AM,48.2,48.2,100,29.82,10.0,SSW,10.4,-,N/A,,Clear,210,2012-12-14 14:58:00
8:58 AM,49.1,45.5,87,29.86,10.0,SSW,13.8,-,N/A,,Clear,210,2012-12-14 15:58:00
9:58 AM,51.6,44.2,76,29.90,10.0,South,10.4,-,N/A,,Partly Cloudy,180,2012-12-14 16:58:00
10:58 AM,54.0,45.7,74,29.91,10.0,SSW,12.7,-,N/A,,Scattered Clouds,200,2012-12-14 17:58:00
11:28 AM,53.6,42.8,67,29.92,10.0,SW,13.8,-,N/A,,Mostly Cloudy,220,2012-12-14 18:28:00
11:38 AM,53.6,42.8,67,29.92,10.0,SSW,13.8,-,N/A,,Mostly Cloudy,210,2012-12-14 18:38:00
11:58 AM,54.5,40.5,59,29.91,10.0,SSW,13.8,-,N/A,,Mostly Cloudy,200,2012-12-14 18:58:00
12:08 PM,53.6,41.0,62,29.92,10.0,South,16.1,-,N/A,,Scattered Clouds,190,2012-12-14 19:08:00
12:18 PM,55.4,41.0,58,29.92,10.0,SSW,13.8,-,N/A,,Mostly Cloudy,200,2012-12-14 19:18:00
12:58 PM,55.8,40.8,57,29.91,10.0,SSW,18.4,21.9,N/A,,Scattered Clouds,210,2012-12-14 19:58:00
1:08 PM,55.4,41.0,58,29.91,10.0,SW,10.4,-,N/A,,Mostly Cloudy,220,2012-12-14 20:08:00
1:28 PM,55.4,39.2,54,29.91,10.0,SW,13.8,-,N/A,,Scattered Clouds,220,2012-12-14 20:28:00
1:38 PM,55.4,39.2,54,29.91,10.0,SW,12.7,-,N/A,,Mostly Cloudy,230,2012-12-14 20:38:00
1:48 PM,55.4,39.2,54,29.92,10.0,SW,13.8,-,N/A,,Scattered Clouds,220,2012-12-14 20:48:00
1:58 PM,55.8,40.1,56,29.91,10.0,SW,11.5,-,N/A,,Mostly Cloudy,230,2012-12-14 20:58:00
2:16 PM,57.2,39.2,51,29.91,10.0,South,15.0,-,N/A,,Mostly Cloudy,190,2012-12-14 21:16:00
2:26 PM,57.2,39.2,51,29.91,10.0,SSW,15.0,-,N/A,,Partly Cloudy,200,2012-12-14 21:26:00
2:58 PM,57.9,39.6,50,29.91,10.0,SW,11.5,-,N/A,,Clear,220,2012-12-14 21:58:00
3:58 PM,57.6,39.4,51,29.92,10.0,SSW,10.4,-,N/A,,Scattered Clouds,210,2012-12-14 22:58:00
4:58 PM,57.6,37.6,47,29.95,10.0,SSW,8.1,-,N/A,,Clear,210,2012-12-14 23:58:00
5:58 PM,55.2,40.1,57,29.95,10.0,SSW,2.3,-,N/A,,Scattered Clouds,210,2012-12-15 00:58:00
6:58 PM,54.5,38.5,55,29.97,10.0,South,3.5,-,N/A,,Clear,170,2012-12-15 01:58:00
7:48 PM,53.6,37.4,54,29.98,10.0,SSE,4.6,-,N/A,,Mostly Cloudy,160,2012-12-15 02:48:00
7:58 PM,53.4,37.9,56,29.97,10.0,SSE,2.3,-,N/A,,Mostly Cloudy,150,2012-12-15 02:58:00
8:38 PM,53.6,41.0,62,30.00,10.0,South,17.3,23.0,N/A,Rain,Light Rain,180,2012-12-15 03:38:00
8:48 PM,51.8,42.8,71,30.00,10.0,South,9.2,-,N/A,Rain,Light Rain,180,2012-12-15 03:48:00
8:58 PM,51.6,43.2,73,30.01,10.0,SSW,5.8,-,N/A,,Mostly Cloudy,200,2012-12-15 03:58:00
9:58 PM,51.3,44.8,78,30.00,8.0,WNW,1.2,-,N/A,Rain,Light Rain,290,2012-12-15 04:58:00
10:08 PM,50.0,46.4,87,29.99,9.0,North,3.5,-,N/A,Rain,Light Rain,10,2012-12-15 05:08:00
10:18 PM,50.0,48.2,94,29.99,10.0,North,3.5,-,N/A,,Light Drizzle,10,2012-12-15 05:18:00
10:58 PM,49.3,47.5,94,29.99,10.0,West,4.6,-,N/A,Rain,Light Rain,280,2012-12-15 05:58:00
11:18 PM,48.2,48.2,100,29.99,6.0,NNE,2.3,-,N/A,Rain,Light Rain,30,2012-12-15 06:18:00
11:58 PM,48.7,48.7,100,29.99,10.0,North,1.2,-,N/A,,Mostly Cloudy,360,2012-12-15 06:58:00